createdAt,value
2023-03-12T00:02:22.369Z,8.07
2023-03-12T00:04:45.003Z,6.88
2023-03-12T00:07:10.551Z,6.93
2023-03-12T00:09:38.075Z,7.60
2023-03-12T00:12:01.012Z,7.30
2023-03-12T00:14:23.607Z,6.50
2023-03-12T00:16:46.202Z,7.93
2023-03-12T00:19:12.763Z,6.50
2023-03-12T00:21:35.380Z,7.05
2023-03-12T00:23:58.123Z,9.15
2023-03-12T00:26:21.588Z,6.88
2023-03-12T00:28:44.638Z,8.27
2023-03-12T00:31:20.655Z,7.73
2023-03-12T00:33:43.408Z,6.45
2023-03-12T00:36:06.524Z,6.65
2023-03-12T00:38:29.258Z,6.53
2023-03-12T00:40:51.906Z,5.63
2023-03-12T00:43:14.925Z,7.47
2023-03-12T00:45:37.517Z,7.28
2023-03-12T00:48:00.349Z,7.00
2023-03-12T00:50:23.067Z,7.18
2023-03-12T00:52:45.705Z,7.15
2023-03-12T00:55:08.753Z,6.20
2023-03-12T00:57:31.601Z,7.20
2023-03-12T00:59:54.651Z,8.38
2023-03-12T01:02:18.063Z,7.13
2023-03-12T01:04:40.744Z,5.60
2023-03-12T01:07:03.572Z,6.80
2023-03-12T01:09:26.249Z,7.88
2023-03-12T01:11:48.943Z,5.88
2023-03-12T01:14:11.535Z,7.18
2023-03-12T01:16:34.768Z,5.55
2023-03-12T01:18:59.010Z,6.27
2023-03-12T01:21:22.314Z,7.05
2023-03-12T01:23:45.066Z,6.82
2023-03-12T01:26:07.999Z,8.07
2023-03-12T01:28:30.943Z,6.28
2023-03-12T01:30:53.972Z,6.80
2023-03-12T01:33:16.921Z,6.15
2023-03-12T01:35:41.529Z,7.75
2023-03-12T01:38:04.331Z,6.28
2023-03-12T01:40:29.033Z,6.57
2023-03-12T01:42:57.383Z,6.20
2023-03-12T01:46:08.623Z,7.05
2023-03-12T01:48:42.896Z,9.50
2023-03-12T01:51:07.846Z,6.38
2023-03-12T01:53:31.463Z,7.35
2023-03-12T01:55:54.428Z,7.37
2023-03-12T01:58:17.966Z,8.35
2023-03-12T02:00:41.043Z,10.02
2023-03-12T02:03:08.460Z,7.90
2023-03-12T02:05:50.922Z,7.05
2023-03-12T02:08:15.942Z,5.87
2023-03-12T02:10:38.830Z,7.47
2023-03-12T02:13:01.680Z,8.60
2023-03-12T02:15:24.538Z,8.43
2023-03-12T02:17:47.405Z,7.93
2023-03-12T02:20:19.925Z,7.70
2023-03-12T02:22:46.632Z,10.65
2023-03-12T02:25:30.911Z,8.10
2023-03-12T02:27:54.541Z,8.27
2023-03-12T02:30:18.331Z,8.68
2023-03-12T02:32:41.531Z,8.13
2023-03-12T02:35:06.012Z,9.48
2023-03-12T02:37:28.898Z,9.55
2023-03-12T02:40:12.448Z,11.50
2023-03-12T02:42:35.387Z,8.95
2023-03-12T02:44:58.866Z,8.90
2023-03-12T02:47:21.452Z,10.68
2023-03-12T02:52:20.808Z,9.25
2023-03-12T02:54:43.519Z,9.35
2023-03-12T02:57:06.924Z,9.97
2023-03-12T02:59:30.494Z,11.15
2023-03-12T03:01:59.764Z,10.50
2023-03-12T03:04:23.421Z,10.43
2023-03-12T03:06:48.406Z,10.25
2023-03-12T03:09:11.156Z,10.67
2023-03-12T03:11:34.044Z,9.88
2023-03-12T03:13:58.986Z,9.93
2023-03-12T03:16:22.867Z,10.60
2023-03-12T03:18:45.588Z,11.27
2023-03-12T03:21:10.342Z,10.30
2023-03-12T03:23:33.200Z,12.02
2023-03-12T03:25:56.228Z,11.55
2023-03-12T03:28:20.948Z,11.25
2023-03-12T03:30:43.874Z,10.68
2023-03-12T03:33:06.669Z,12.40
2023-03-12T03:35:29.591Z,9.55
2023-03-12T03:37:52.630Z,10.43
2023-03-12T03:40:15.341Z,10.85
2023-03-12T03:42:39.864Z,9.98
2023-03-12T03:45:03.286Z,11.93
2023-03-12T03:47:26.099Z,12.80
2023-03-12T03:49:51.476Z,11.07
2023-03-12T03:52:14.232Z,10.43
2023-03-12T03:54:36.929Z,12.63
2023-03-12T03:57:02.174Z,12.43
2023-03-12T03:59:24.978Z,12.77
2023-03-12T04:01:47.963Z,12.40
2023-03-12T04:04:11.138Z,12.07
2023-03-12T04:06:33.993Z,11.02
2023-03-12T04:08:57.579Z,11.23
2023-03-12T04:11:22.595Z,10.55
2023-03-12T04:13:45.894Z,11.35
2023-03-12T04:16:11.433Z,13.05
2023-03-12T04:18:36.152Z,13.18
2023-03-12T04:20:59.273Z,11.57
2023-03-12T04:23:22.004Z,11.95
2023-03-12T04:25:44.979Z,12.70
2023-03-12T04:28:08.024Z,13.57
2023-03-12T04:30:33.928Z,13.38
2023-03-12T04:32:56.867Z,11.37
2023-03-12T04:35:20.285Z,11.45
2023-03-12T04:37:43.233Z,13.30
2023-03-12T04:40:09.616Z,11.48
2023-03-12T04:42:32.452Z,12.38
2023-03-12T04:44:55.183Z,13.97
2023-03-12T04:47:18.154Z,12.45
2023-03-12T04:49:41.967Z,11.88
2023-03-12T04:52:05.036Z,12.05
2023-03-12T04:54:28.201Z,13.13
2023-03-12T04:56:51.377Z,11.80
2023-03-12T04:59:16.681Z,12.93
2023-03-12T05:01:41.088Z,12.23
2023-03-12T05:04:10.543Z,12.40
2023-03-12T05:06:34.187Z,13.48
2023-03-12T05:08:57.673Z,14.83
2023-03-12T05:11:21.643Z,12.07
2023-03-12T05:13:44.372Z,12.68
2023-03-12T05:16:08.018Z,14.50
2023-03-12T05:18:30.815Z,13.95
2023-03-12T05:21:05.560Z,15.67
2023-03-12T05:23:29.037Z,13.38
2023-03-12T05:25:52.494Z,12.27
2023-03-12T05:28:15.164Z,12.80
2023-03-12T05:30:40.271Z,12.38
2023-03-12T05:33:03.136Z,14.03
2023-03-12T05:35:26.986Z,11.23
2023-03-12T05:37:49.532Z,13.48
2023-03-12T05:40:13.223Z,14.20
2023-03-12T05:42:35.993Z,13.20
2023-03-12T05:44:59.378Z,12.03
2023-03-12T05:47:22.702Z,13.35
2023-03-12T05:49:45.457Z,13.02
2023-03-12T05:52:08.581Z,14.07
2023-03-12T05:54:31.811Z,13.95
2023-03-12T05:56:56.094Z,16.70
2023-03-12T05:59:20.592Z,12.43
2023-03-12T06:01:43.876Z,13.02
2023-03-12T06:04:07.604Z,12.35
2023-03-12T06:06:32.289Z,15.43
2023-03-12T06:08:55.659Z,13.43
2023-03-12T06:11:18.408Z,14.93
2023-03-12T06:13:41.982Z,15.50
2023-03-12T06:16:05.764Z,14.48
2023-03-12T06:18:29.212Z,12.73
2023-03-12T06:20:51.996Z,12.67
2023-03-12T06:23:15.351Z,14.57
2023-03-12T06:25:38.414Z,14.82
2023-03-12T06:28:01.480Z,13.20
2023-03-12T06:30:24.382Z,14.75
2023-03-12T06:32:47.232Z,12.63
2023-03-12T06:35:10.007Z,12.70
2023-03-12T06:37:32.566Z,12.88
2023-03-12T06:39:55.638Z,11.23
2023-03-12T06:42:19.777Z,12.02
2023-03-12T06:44:42.400Z,12.03
2023-03-12T06:47:05.163Z,11.02
2023-03-12T06:49:32.188Z,11.35
2023-03-12T06:51:57.152Z,14.40
2023-03-12T06:54:19.812Z,11.85
2023-03-12T06:56:42.827Z,12.37
2023-03-12T06:59:05.828Z,12.07
2023-03-12T07:01:28.448Z,10.73
2023-03-12T07:03:51.411Z,10.95
2023-03-12T07:06:19.404Z,11.38
2023-03-12T07:08:43.047Z,10.93
2023-03-12T07:11:05.776Z,12.48
2023-03-12T07:13:28.525Z,12.15
2023-03-12T07:15:51.180Z,11.40
2023-03-12T07:18:14.007Z,12.40
2023-03-12T07:20:39.443Z,11.87
2023-03-12T07:23:02.118Z,11.75
2023-03-12T07:25:24.716Z,10.73
2023-03-12T07:27:47.427Z,12.00
2023-03-12T07:30:10.680Z,10.77
2023-03-12T07:32:33.634Z,11.27
2023-03-12T07:34:56.641Z,11.00
2023-03-12T07:37:19.292Z,11.23
2023-03-12T07:39:41.995Z,10.20
2023-03-12T07:42:04.864Z,12.65
2023-03-12T07:44:28.764Z,10.90
2023-03-12T07:46:51.747Z,12.07
2023-03-12T07:49:14.518Z,11.93
2023-03-12T07:51:37.190Z,11.20
2023-03-12T07:53:59.904Z,10.40
2023-03-12T07:56:22.903Z,9.60
2023-03-12T07:58:46.364Z,10.68
2023-03-12T08:01:09.669Z,13.82
2023-03-12T08:03:33.393Z,10.68
2023-03-12T08:06:04.078Z,11.55
2023-03-12T08:08:27.814Z,10.17
2023-03-12T08:10:50.609Z,11.95
2023-03-12T08:13:13.463Z,11.73
2023-03-12T08:15:36.060Z,12.68
2023-03-12T08:17:59.488Z,10.48
2023-03-12T08:20:22.550Z,9.77
2023-03-12T08:22:45.269Z,10.35
2023-03-12T08:25:08.853Z,11.48
2023-03-12T08:27:31.799Z,11.00
2023-03-12T08:29:54.628Z,11.13
2023-03-12T08:32:17.550Z,9.37
2023-03-12T08:34:40.209Z,10.43
2023-03-12T08:37:03.258Z,10.13
2023-03-12T08:39:26.174Z,10.55
2023-03-12T08:41:49.350Z,10.98
2023-03-12T08:44:11.948Z,10.00
2023-03-12T08:46:35.104Z,10.77
2023-03-12T08:48:57.759Z,10.65
2023-03-12T08:51:20.495Z,10.80
2023-03-12T08:53:43.108Z,9.07
2023-03-12T08:56:06.257Z,11.20
2023-03-12T08:58:29.141Z,10.52
2023-03-12T09:00:52.643Z,9.30
2023-03-12T09:03:15.510Z,10.95
2023-03-12T09:05:38.160Z,10.25
2023-03-12T09:08:00.939Z,7.67
2023-03-12T09:10:24.619Z,10.30
2023-03-12T09:12:47.435Z,8.60
2023-03-12T09:15:10.491Z,9.23
2023-03-12T09:17:33.149Z,10.50
2023-03-12T09:20:00.235Z,9.43
2023-03-12T09:22:22.921Z,8.13
2023-03-12T09:24:45.663Z,9.50
2023-03-12T09:27:08.494Z,8.15
2023-03-12T09:29:32.338Z,8.50
2023-03-12T09:31:54.887Z,8.87
2023-03-12T09:34:17.825Z,8.02
2023-03-12T09:36:40.436Z,7.50
2023-03-12T09:39:03.762Z,7.85
2023-03-12T09:41:31.091Z,10.05
2023-03-12T09:44:03.018Z,7.60
2023-03-12T09:46:33.531Z,6.30
2023-03-12T09:48:59.082Z,8.80
2023-03-12T09:51:33.617Z,7.97
2023-03-12T09:54:00.548Z,10.00
2023-03-12T09:56:23.710Z,7.23
2023-03-12T09:58:48.440Z,9.07
2023-03-12T10:01:33.296Z,8.45
2023-03-12T10:04:39.949Z,8.00
2023-03-12T10:07:20.913Z,8.35
2023-03-12T10:10:01.951Z,7.67
2023-03-12T10:12:30.214Z,9.05
2023-03-12T10:15:11.842Z,6.60
2023-03-12T10:17:45.141Z,7.13
2023-03-12T10:20:14.037Z,7.22
2023-03-12T10:23:00.923Z,7.87
2023-03-12T10:25:41.963Z,6.68
2023-03-12T10:28:13.473Z,8.00
2023-03-12T10:30:36.863Z,8.32
2023-03-12T10:33:04.349Z,7.93
2023-03-12T10:35:30.571Z,7.40
2023-03-12T10:38:01.394Z,6.75
2023-03-12T10:40:27.279Z,6.55
2023-03-12T10:42:50.157Z,7.13
2023-03-12T10:45:32.413Z,6.65
2023-03-12T10:47:59.116Z,7.50
2023-03-12T10:50:24.441Z,8.05
2023-03-12T10:52:49.609Z,7.88
2023-03-12T10:55:27.495Z,7.68
2023-03-12T10:57:50.812Z,6.60
2023-03-12T11:00:30.030Z,7.13
2023-03-12T11:03:21.894Z,7.07
2023-03-12T11:05:53.382Z,6.93
2023-03-12T11:08:28.660Z,7.38
2023-03-12T11:10:51.393Z,7.43
2023-03-12T11:13:28.093Z,7.23
2023-03-12T11:15:52.914Z,7.22
2023-03-12T11:18:25.280Z,9.40
2023-03-12T11:20:50.437Z,6.80
2023-03-12T11:23:43.180Z,6.55
2023-03-12T11:26:14.920Z,6.27
2023-03-12T11:28:41.230Z,6.90
2023-03-12T11:31:08.655Z,6.65
2023-03-12T11:33:31.455Z,6.40
2023-03-12T11:36:09.387Z,5.97
2023-03-12T11:38:39.161Z,5.83
2023-03-12T11:41:16.698Z,5.47
2023-03-12T11:43:44.465Z,6.82
2023-03-12T11:46:28.335Z,5.10
2023-03-12T11:49:09.247Z,6.10
2023-03-12T11:51:45.062Z,5.07
2023-03-12T11:54:49.467Z,7.57
2023-03-12T11:57:23.854Z,6.88
2023-03-12T12:00:12.415Z,6.88
2023-03-12T12:02:54.993Z,8.98
2023-03-12T12:05:44.140Z,7.23
2023-03-12T12:08:21.906Z,8.27
2023-03-12T12:11:02.650Z,7.13
2023-03-12T12:13:37.630Z,7.15
2023-03-12T12:16:15.546Z,6.82
2023-03-12T12:19:05.778Z,8.53
2023-03-12T12:21:46.131Z,6.07
2023-03-12T12:24:32.180Z,8.30
2023-03-12T12:27:07.214Z,5.88
2023-03-12T12:33:07.565Z,6.07
2023-03-12T12:35:40.689Z,5.25
2023-03-12T12:38:07.183Z,5.40
2023-03-12T12:40:31.857Z,6.25
2023-03-12T12:43:02.407Z,6.60
2023-03-12T12:45:29.068Z,8.20
2023-03-12T12:47:58.755Z,6.05
2023-03-12T12:50:24.900Z,6.55
2023-03-12T12:53:16.046Z,6.60
2023-03-12T12:55:51.927Z,6.50
2023-03-12T12:58:25.845Z,5.83
2023-03-12T13:00:54.755Z,5.47
2023-03-12T13:03:24.606Z,5.57
2023-03-12T13:05:55.921Z,5.20
2023-03-12T13:09:01.089Z,4.93
2023-03-12T13:11:26.490Z,4.83
2023-03-12T13:14:02.541Z,4.43
2023-03-12T13:16:33.346Z,4.18
2023-03-12T13:19:06.232Z,4.97
2023-03-12T13:21:41.842Z,5.15
2023-03-12T13:24:13.606Z,5.47
2023-03-12T13:26:45.481Z,5.05
2023-03-12T13:29:22.639Z,4.30
2023-03-12T13:31:45.561Z,4.20
2023-03-12T13:34:17.471Z,4.65
2023-03-12T13:36:40.280Z,5.17
2023-03-12T13:39:08.702Z,4.07
2023-03-12T13:41:52.226Z,3.58
2023-03-12T13:44:23.648Z,3.95
2023-03-12T13:46:46.387Z,4.53
2023-03-12T13:49:12.789Z,4.07
2023-03-12T13:51:44.321Z,4.80
2023-03-12T13:54:18.751Z,3.30
2023-03-12T13:56:53.797Z,3.25
2023-03-12T13:59:19.293Z,4.18
2023-03-12T14:01:47.125Z,3.10
2023-03-12T14:04:18.570Z,2.53
2023-03-12T14:07:05.907Z,3.10
2023-03-12T14:09:47.200Z,3.13
2023-03-12T14:12:48.696Z,2.80
2023-03-12T14:15:23.221Z,2.47
2023-03-12T14:17:46.898Z,2.78
2023-03-12T14:20:18.604Z,3.47
2023-03-12T14:22:45.022Z,3.15
2023-03-12T14:25:37.835Z,3.72
2023-03-12T14:28:02.922Z,3.33
2023-03-12T14:30:36.227Z,3.50
2023-03-12T14:33:01.842Z,3.15
2023-03-12T14:35:33.749Z,3.53
2023-03-12T14:38:02.650Z,4.22
2023-03-12T14:40:37.728Z,4.70
2023-03-12T14:43:00.823Z,2.97
2023-03-12T14:45:23.702Z,2.75
2023-03-12T14:47:49.078Z,3.15
2023-03-12T14:50:22.002Z,6.63
2023-03-12T14:52:45.307Z,3.53
2023-03-12T14:55:13.727Z,4.68
2023-03-12T14:57:36.544Z,3.80
2023-03-12T15:00:01.945Z,3.95
2023-03-12T15:02:25.918Z,3.80
2023-03-12T15:04:55.501Z,3.83
2023-03-12T15:07:29.410Z,3.65
2023-03-12T15:09:53.166Z,4.22
2023-03-12T15:12:20.275Z,3.97
2023-03-12T15:14:43.014Z,4.47
2023-03-12T15:17:07.791Z,6.10
2023-03-12T15:19:35.041Z,3.75
2023-03-12T15:21:58.729Z,5.05
2023-03-12T15:24:21.493Z,6.13
2023-03-12T15:26:44.181Z,3.80
2023-03-12T15:29:42.496Z,3.77
2023-03-12T15:32:14.275Z,3.63
2023-03-12T15:34:39.152Z,3.80
2023-03-12T15:37:24.498Z,2.88
2023-03-12T15:39:52.444Z,3.05
2023-03-12T15:42:21.046Z,3.27
2023-03-12T15:44:47.361Z,3.05
2023-03-12T15:47:14.358Z,2.92
2023-03-12T15:49:39.243Z,3.05
2023-03-12T15:52:27.029Z,4.03
2023-03-12T15:55:22.469Z,2.97
2023-03-12T15:57:54.105Z,2.90
2023-03-12T16:00:31.579Z,2.95
2023-03-12T16:02:54.870Z,3.50
2023-03-12T16:05:20.911Z,3.53
2023-03-12T16:07:44.091Z,3.40
2023-03-12T16:10:13.712Z,3.03
2023-03-12T16:12:38.156Z,3.80
2023-03-12T16:15:01.076Z,3.20
2023-03-12T16:17:24.168Z,4.65
2023-03-12T16:19:48.235Z,3.37
2023-03-12T16:22:11.128Z,4.55
2023-03-12T16:24:34.670Z,3.28
2023-03-12T16:26:58.957Z,3.70
2023-03-12T16:29:23.208Z,2.78
2023-03-12T16:31:55.496Z,3.80
2023-03-12T16:34:18.396Z,3.35
2023-03-12T16:36:41.099Z,3.28
2023-03-12T16:39:04.392Z,3.65
2023-03-12T16:41:28.702Z,4.38
2023-03-12T16:43:53.827Z,4.00
2023-03-12T16:46:19.722Z,4.75
2023-03-12T16:48:42.500Z,2.92
2023-03-12T16:51:13.887Z,3.72
2023-03-12T16:53:36.891Z,3.70
2023-03-12T16:56:01.418Z,4.50
2023-03-12T16:58:27.023Z,5.25
2023-03-12T17:00:50.954Z,4.90
2023-03-12T17:03:38.115Z,5.05
2023-03-12T17:06:01.357Z,5.10
2023-03-12T17:08:24.120Z,6.67
2023-03-12T17:10:47.236Z,7.43
2023-03-12T17:13:19.992Z,5.85
2023-03-12T17:15:42.971Z,8.35
2023-03-12T17:18:05.843Z,9.07
2023-03-12T17:20:36.074Z,6.90
2023-03-12T17:23:00.630Z,11.32
2023-03-12T17:25:26.361Z,8.50
2023-03-12T17:27:49.182Z,7.55
2023-03-12T17:30:13.608Z,7.75
2023-03-12T17:32:36.833Z,8.63
2023-03-12T17:35:03.298Z,6.53
2023-03-12T17:37:26.578Z,9.70
2023-03-12T17:39:50.502Z,8.35
2023-03-12T17:42:13.384Z,8.38
2023-03-12T17:44:36.940Z,10.53
2023-03-12T17:47:00.033Z,9.68
2023-03-12T17:49:22.725Z,9.15
2023-03-12T17:51:45.562Z,7.28
2023-03-12T17:54:09.885Z,8.25
2023-03-12T17:56:33.002Z,7.87
2023-03-12T17:58:56.163Z,7.13
2023-03-12T18:01:19.568Z,7.00
2023-03-12T18:03:44.142Z,9.25
2023-03-12T18:06:07.569Z,6.93
2023-03-12T18:08:30.486Z,6.40
2023-03-12T18:10:53.130Z,5.57
2023-03-12T18:13:16.071Z,6.25
2023-03-12T18:15:39.347Z,5.85
2023-03-12T18:18:02.335Z,5.85
2023-03-12T18:20:37.446Z,5.63
2023-03-12T18:23:01.525Z,4.35
2023-03-12T18:25:24.424Z,7.75
2023-03-12T18:27:47.987Z,6.20
2023-03-12T18:30:14.432Z,8.00
2023-03-12T18:32:37.832Z,9.20
2023-03-12T18:35:01.154Z,6.18
2023-03-12T18:37:24.171Z,5.47
2023-03-12T18:39:48.619Z,6.38
2023-03-12T18:42:11.555Z,5.93
2023-03-12T18:44:34.435Z,6.60
2023-03-12T18:46:57.459Z,6.55
2023-03-12T18:49:20.393Z,6.45
2023-03-12T18:51:43.779Z,8.50
2023-03-12T18:54:06.899Z,7.75
2023-03-12T18:56:29.947Z,7.73
2023-03-12T18:58:52.961Z,8.18
2023-03-12T19:01:16.066Z,8.02
2023-03-12T19:03:39.236Z,6.50
2023-03-12T19:06:09.131Z,7.60
2023-03-12T19:08:32.142Z,7.27
2023-03-12T19:10:55.056Z,8.85
2023-03-12T19:13:17.923Z,7.63
2023-03-12T19:15:41.198Z,7.30
2023-03-12T19:18:04.343Z,8.45
2023-03-12T19:20:27.456Z,11.30
2023-03-12T19:22:50.794Z,9.50
2023-03-12T19:25:14.249Z,11.20
2023-03-12T19:27:37.215Z,11.70
2023-03-12T19:30:01.376Z,10.68
2023-03-12T19:32:27.765Z,10.20
2023-03-12T19:34:55.985Z,11.02
2023-03-12T19:37:18.703Z,12.63
2023-03-12T19:39:42.314Z,13.07
2023-03-12T19:42:04.861Z,12.85
2023-03-12T19:44:27.883Z,11.37
2023-03-12T19:46:50.754Z,16.30
2023-03-12T19:49:13.714Z,15.00
2023-03-12T19:51:36.791Z,14.00
2023-03-12T19:54:00.106Z,13.05
2023-03-12T19:56:22.894Z,11.33
2023-03-12T19:58:45.755Z,11.70
2023-03-12T20:01:08.988Z,12.27
2023-03-12T20:03:33.057Z,9.15
2023-03-12T20:05:56.945Z,10.63
2023-03-12T20:08:26.109Z,12.40
2023-03-12T20:10:49.734Z,12.00
2023-03-12T20:13:17.553Z,11.27
2023-03-12T20:15:40.748Z,12.65
2023-03-12T20:18:03.634Z,10.70
2023-03-12T20:20:27.704Z,11.33
2023-03-12T20:22:50.656Z,12.02
2023-03-12T20:25:13.590Z,12.52
2023-03-12T20:27:36.878Z,25.15
2023-03-12T20:29:59.516Z,27.45
2023-03-12T20:32:22.291Z,25.50
2023-03-12T20:34:45.378Z,23.55
2023-03-12T20:37:08.248Z,19.80
2023-03-12T20:39:31.219Z,20.58
2023-03-12T20:41:55.197Z,19.80
2023-03-12T20:44:18.493Z,16.97
2023-03-12T20:46:41.436Z,19.48
2023-03-12T20:49:05.252Z,16.23
2023-03-12T20:51:28.243Z,14.02
2023-03-12T20:53:51.048Z,15.45
2023-03-12T20:56:14.023Z,16.13
2023-03-12T20:58:37.089Z,23.55
2023-03-12T21:01:01.280Z,20.17
2023-03-12T21:03:44.555Z,19.33
2023-03-12T21:06:07.612Z,19.80
2023-03-12T21:08:30.501Z,19.27
2023-03-12T21:10:54.188Z,17.98
2023-03-12T21:13:20.367Z,19.85
2023-03-12T21:15:43.075Z,20.67
2023-03-12T21:18:05.962Z,19.75
2023-03-12T21:20:29.482Z,18.00
2023-03-12T21:22:52.015Z,15.98
2023-03-12T21:25:15.152Z,16.17
2023-03-12T21:27:49.836Z,19.35
2023-03-12T21:30:14.389Z,24.95
2023-03-12T21:32:37.030Z,31.77
2023-03-12T21:34:59.820Z,30.58
2023-03-12T21:37:24.957Z,25.90
2023-03-12T21:39:48.357Z,25.25
2023-03-12T21:42:12.447Z,18.42
2023-03-12T21:44:36.595Z,20.43
2023-03-12T21:46:59.125Z,25.40
2023-03-12T21:49:21.854Z,26.40
2023-03-12T21:51:45.152Z,23.85
2023-03-12T21:54:07.845Z,23.50
2023-03-12T21:56:30.425Z,18.77
2023-03-12T21:58:52.948Z,22.25
2023-03-12T22:01:17.669Z,22.17
2023-03-12T22:03:42.441Z,21.17
2023-03-12T22:06:05.950Z,14.18
2023-03-12T22:08:29.041Z,12.20
2023-03-12T22:10:51.729Z,22.77
2023-03-12T22:13:14.655Z,14.27
2023-03-12T22:15:37.278Z,10.85
2023-03-12T22:18:00.256Z,10.77
2023-03-12T22:20:25.855Z,8.17
2023-03-12T22:22:48.524Z,10.98
2023-03-12T22:25:11.036Z,13.25
2023-03-12T22:27:33.654Z,9.55
2023-03-12T22:29:58.300Z,10.25
2023-03-12T22:32:20.977Z,8.80
2023-03-12T22:34:43.576Z,10.40
2023-03-12T22:37:07.163Z,9.55
2023-03-12T22:39:29.739Z,9.40
2023-03-12T22:41:52.499Z,10.43
2023-03-12T22:44:15.186Z,9.70
2023-03-12T22:46:37.876Z,9.13
2023-03-12T22:49:02.308Z,9.65
2023-03-12T22:51:25.820Z,9.38
2023-03-12T22:53:48.439Z,8.88
2023-03-12T22:56:12.887Z,10.00
2023-03-12T22:58:36.424Z,11.60
2023-03-12T23:01:01.269Z,9.75
2023-03-12T23:03:23.791Z,10.48
2023-03-12T23:05:46.473Z,12.07
2023-03-12T23:08:09.318Z,9.40
2023-03-12T23:10:32.048Z,10.20
2023-03-12T23:12:54.674Z,8.85
2023-03-12T23:15:17.292Z,10.35
2023-03-12T23:17:39.933Z,9.95
2023-03-12T23:20:05.424Z,10.63
2023-03-12T23:22:28.592Z,10.30
2023-03-12T23:24:51.216Z,9.77
2023-03-12T23:27:13.786Z,10.40
2023-03-12T23:29:36.891Z,11.38
2023-03-12T23:32:00.017Z,9.63
2023-03-12T23:34:22.707Z,9.73
2023-03-12T23:36:46.168Z,13.45
2023-03-12T23:39:08.810Z,12.90
2023-03-12T23:41:31.559Z,11.48
2023-03-12T23:43:54.177Z,11.40
2023-03-12T23:46:17.250Z,11.45
2023-03-12T23:48:41.108Z,12.40
2023-03-12T23:51:12.598Z,11.98
2023-03-12T23:53:36.503Z,10.80
2023-03-12T23:56:00.787Z,13.00
2023-03-12T23:58:25.034Z,10.85
